Time;durP1;ratioP1;P1;durP2;ratioP2;P2;SDS_P1;SDS_P2;PMS_P1;PMS_P2;Temp;Humidity;BMP_temperature;BMP_pressure;BME280_temperature;BME280_humidity;BME280_pressure;Samples;Min_cycle;Max_cycle;Signal;HPM_P1;HPM_P2
2022/09/07 00:00:07;;;;;;;9.23;5.57;;;;;;;;;;4968695;28;20198;-79
2022/09/07 00:03:11;;;;;;;11.97;5.63;;;;;;;;;;4979391;28;20203;-78
2022/09/07 00:06:15;;;;;;;10.00;5.87;;;;;;;;;;4978905;28;20202;-78
2022/09/07 00:09:20;;;;;;;8.53;6.20;;;;;;;;;;4979382;28;20219;-78
2022/09/07 00:12:24;;;;;;;13.50;6.73;;;;;;;;;;4978498;28;20729;-78
2022/09/07 00:15:28;;;;;;;10.97;6.97;;;;;;;;;;4979389;28;20198;-78
2022/09/07 00:18:33;;;;;;;8.40;5.77;;;;;;;;;;4979009;28;20202;-78
2022/09/07 00:21:37;;;;;;;12.50;6.40;;;;;;;;;;4979021;28;20214;-79
2022/09/07 00:24:41;;;;;;;12.27;6.77;;;;;;;;;;4978817;28;20182;-79
2022/09/07 00:27:45;;;;;;;8.93;6.80;;;;;;;;;;4979598;28;20218;-78
2022/09/07 00:30:49;;;;;;;9.30;6.27;;;;;;;;;;4978978;28;20222;-78
2022/09/07 00:33:57;;;;;;;9.67;6.37;;;;;;;;;;4978890;28;20187;-79
2022/09/07 00:37:01;;;;;;;7.40;5.93;;;;;;;;;;4956410;28;20183;-78
2022/09/07 00:40:06;;;;;;;9.40;6.03;;;;;;;;;;4978451;28;20182;-78
2022/09/07 00:43:30;;;;;;;10.83;6.20;;;;;;;;;;4978041;28;20183;-78
2022/09/07 00:46:35;;;;;;;11.23;5.73;;;;;;;;;;4979585;28;20516;-79
2022/09/07 00:49:41;;;;;;;13.83;5.90;;;;;;;;;;4967151;28;20211;-78
2022/09/07 00:52:52;;;;;;;11.57;5.90;;;;;;;;;;4977888;28;20229;-78
2022/09/07 00:55:57;;;;;;;10.87;6.17;;;;;;;;;;4978500;28;20179;-78
2022/09/07 00:59:01;;;;;;;10.87;6.03;;;;;;;;;;4977911;28;20179;-78
2022/09/07 01:02:06;;;;;;;9.83;6.10;;;;;;;;;;4978345;28;20214;-78
2022/09/07 01:05:25;;;;;;;11.10;7.00;;;;;;;;;;4966644;28;20634;-78
2022/09/07 01:08:29;;;;;;;8.53;6.10;;;;;;;;;;4955160;28;20222;-78
2022/09/07 01:11:34;;;;;;;10.30;5.97;;;;;;;;;;4966670;28;20693;-77
2022/09/07 01:14:41;;;;;;;9.10;6.43;;;;;;;;;;4977734;28;20183;-80
2022/09/07 01:18:00;;;;;;;7.97;6.83;;;;;;;;;;4978120;28;20179;-78
2022/09/07 01:21:20;;;;;;;9.70;6.17;;;;;;;;;;4977383;28;20219;-79
2022/09/07 01:25:09;;;;;;;10.30;6.50;;;;;;;;;;4965729;28;20667;-78
2022/09/07 01:28:26;;;;;;;7.30;6.40;;;;;;;;;;4966396;28;20215;-78
2022/09/07 01:32:05;;;;;;;10.40;6.33;;;;;;;;;;4965523;28;20563;-77
2022/09/07 01:35:32;;;;;;;11.63;5.60;;;;;;;;;;4977217;28;20191;-78
2022/09/07 01:38:47;;;;;;;11.63;6.10;;;;;;;;;;4977516;28;20183;-80
2022/09/07 01:41:57;;;;;;;10.40;6.73;;;;;;;;;;4964089;28;20218;-77
2022/09/07 01:45:05;;;;;;;11.77;6.10;;;;;;;;;;4975297;28;20183;-77
2022/09/07 01:48:15;;;;;;;12.97;6.50;;;;;;;;;;4964444;28;20206;-77
2022/09/07 01:51:26;;;;;;;10.70;6.10;;;;;;;;;;4976388;28;20218;-78
2022/09/07 01:54:34;;;;;;;10.87;6.50;;;;;;;;;;4976458;28;20508;-77
2022/09/07 01:57:43;;;;;;;11.93;7.33;;;;;;;;;;4976781;28;20183;-77
2022/09/07 02:00:58;;;;;;;14.10;6.97;;;;;;;;;;4976678;28;20207;-77
2022/09/07 02:04:10;;;;;;;11.50;6.43;;;;;;;;;;4967330;28;20183;-77
2022/09/07 02:07:22;;;;;;;8.73;6.53;;;;;;;;;;4977629;28;20202;-77
2022/09/07 02:10:38;;;;;;;10.57;6.83;;;;;;;;;;4978953;28;20534;-79
2022/09/07 02:13:59;;;;;;;12.93;6.20;;;;;;;;;;4969003;28;20194;-78
2022/09/07 02:17:12;;;;;;;11.10;7.00;;;;;;;;;;4980825;28;20183;-78
2022/09/07 02:20:19;;;;;;;9.03;6.27;;;;;;;;;;4958685;28;20179;-78
2022/09/07 02:23:29;;;;;;;10.13;7.23;;;;;;;;;;4969745;28;20627;-78
2022/09/07 02:26:37;;;;;;;9.57;6.30;;;;;;;;;;4980222;28;20194;-78
2022/09/07 02:29:42;;;;;;;11.73;6.73;;;;;;;;;;4979878;28;20223;-78
2022/09/07 02:32:46;;;;;;;11.13;6.87;;;;;;;;;;4968227;28;20218;-77
2022/09/07 02:35:51;;;;;;;13.97;7.00;;;;;;;;;;4980341;28;20203;-78
2022/09/07 02:38:55;;;;;;;9.90;6.40;;;;;;;;;;4968484;28;20195;-78
2022/09/07 02:41:59;;;;;;;13.50;6.80;;;;;;;;;;4980520;28;20214;-78
2022/09/07 02:45:07;;;;;;;14.23;6.90;;;;;;;;;;4979979;28;20190;-78
2022/09/07 02:48:29;;;;;;;13.70;6.77;;;;;;;;;;4979170;28;20183;-78
2022/09/07 02:51:39;;;;;;;14.10;6.30;;;;;;;;;;4968215;28;20698;-78
2022/09/07 02:55:07;;;;;;;12.33;7.23;;;;;;;;;;4978755;28;20175;-78
2022/09/07 02:58:13;;;;;;;10.33;7.07;;;;;;;;;;4979305;28;20535;-78
2022/09/07 03:01:51;;;;;;;10.97;6.50;;;;;;;;;;4967672;28;20214;-78
2022/09/07 03:05:08;;;;;;;14.07;7.60;;;;;;;;;;4978033;28;20184;-77
2022/09/07 03:08:19;;;;;;;12.00;7.23;;;;;;;;;;4965997;28;20206;-77
2022/09/07 03:11:23;;;;;;;13.83;6.87;;;;;;;;;;4976662;28;20218;-77
2022/09/07 03:14:29;;;;;;;16.00;6.53;;;;;;;;;;4977600;28;20187;-78
2022/09/07 03:17:33;;;;;;;9.80;6.70;;;;;;;;;;4978554;28;20207;-78
2022/09/07 03:20:37;;;;;;;7.33;6.20;;;;;;;;;;4979545;28;20520;-78
2022/09/07 03:23:42;;;;;;;9.80;6.93;;;;;;;;;;4967236;28;20635;-78
2022/09/07 03:26:47;;;;;;;10.60;6.93;;;;;;;;;;4979104;28;20183;-78
2022/09/07 03:29:51;;;;;;;14.53;7.47;;;;;;;;;;4979478;28;20211;-78
2022/09/07 03:32:55;;;;;;;16.57;6.33;;;;;;;;;;4978366;28;20198;-78
2022/09/07 03:36:01;;;;;;;13.97;6.43;;;;;;;;;;4977930;28;20183;-78
2022/09/07 03:39:05;;;;;;;13.00;6.47;;;;;;;;;;4979092;28;20179;-78
2022/09/07 03:42:09;;;;;;;11.60;6.40;;;;;;;;;;4966692;28;20218;-78
2022/09/07 03:45:13;;;;;;;7.67;6.50;;;;;;;;;;4976881;28;20175;-77
2022/09/07 03:48:17;;;;;;;9.13;5.93;;;;;;;;;;4976544;28;20183;-77
2022/09/07 03:51:22;;;;;;;14.43;7.00;;;;;;;;;;4964681;28;20715;-77
2022/09/07 03:54:26;;;;;;;12.00;6.10;;;;;;;;;;4976669;28;20199;-78
2022/09/07 03:57:30;;;;;;;8.67;6.20;;;;;;;;;;4977317;28;20199;-77
2022/09/07 04:00:34;;;;;;;9.47;6.70;;;;;;;;;;4976496;28;20178;-78
2022/09/07 04:03:38;;;;;;;11.63;6.87;;;;;;;;;;4978765;28;20179;-78
2022/09/07 04:06:42;;;;;;;10.90;6.97;;;;;;;;;;4978954;28;20586;-78
2022/09/07 04:09:48;;;;;;;13.57;6.57;;;;;;;;;;4955906;28;20211;-77
2022/09/07 04:12:52;;;;;;;12.57;7.17;;;;;;;;;;4964605;28;20179;-77
2022/09/07 04:15:56;;;;;;;10.93;6.57;;;;;;;;;;4964959;28;20179;-77
2022/09/07 04:19:00;;;;;;;13.53;5.97;;;;;;;;;;4965144;28;20569;-76
2022/09/07 04:22:04;;;;;;;10.63;6.30;;;;;;;;;;4963997;28;20697;-76
2022/09/07 04:25:08;;;;;;;9.27;5.90;;;;;;;;;;4974857;28;20175;-76
2022/09/07 04:28:14;;;;;;;11.87;6.73;;;;;;;;;;4975168;28;20182;-76
2022/09/07 04:31:19;;;;;;;15.40;7.03;;;;;;;;;;4975015;28;20215;-76
2022/09/07 04:34:23;;;;;;;20.00;7.90;;;;;;;;;;4963871;28;20536;-77
2022/09/07 04:37:27;;;;;;;13.67;7.27;;;;;;;;;;4975325;28;20187;-76
2022/09/07 04:40:32;;;;;;;16.17;7.37;;;;;;;;;;4975510;28;20198;-76
2022/09/07 04:43:38;;;;;;;12.20;6.97;;;;;;;;;;4977215;28;20511;-77
2022/09/07 04:46:41;;;;;;;13.27;6.60;;;;;;;;;;4976288;28;20179;-76
2022/09/07 04:49:52;;;;;;;12.77;6.87;;;;;;;;;;4978600;28;20215;-76
2022/09/07 04:52:56;;;;;;;9.47;6.30;;;;;;;;;;4979928;28;20183;-76
2022/09/07 04:56:00;;;;;;;12.17;6.37;;;;;;;;;;4981005;28;20222;-76
2022/09/07 04:59:04;;;;;;;19.13;6.57;;;;;;;;;;4980939;28;20195;-77
2022/09/07 05:02:09;;;;;;;18.20;7.33;;;;;;;;;;4979461;28;20218;-76
2022/09/07 05:05:13;;;;;;;21.83;8.37;;;;;;;;;;4968997;28;20178;-76
2022/09/07 05:08:17;;;;;;;18.80;8.27;;;;;;;;;;4968523;28;20198;-76
2022/09/07 05:11:23;;;;;;;14.83;7.43;;;;;;;;;;4979556;28;20677;-76
2022/09/07 05:14:27;;;;;;;11.83;7.20;;;;;;;;;;4981219;28;20179;-77
2022/09/07 05:17:31;;;;;;;12.10;6.57;;;;;;;;;;4969455;28;20199;-77
2022/09/07 05:20:36;;;;;;;14.67;7.27;;;;;;;;;;4980287;28;20175;-76
2022/09/07 05:23:41;;;;;;;11.97;6.87;;;;;;;;;;4978006;28;20654;-77
2022/09/07 05:26:45;;;;;;;19.03;7.30;;;;;;;;;;4967700;28;20191;-77
2022/09/07 05:29:49;;;;;;;19.57;8.17;;;;;;;;;;4979211;28;20211;-77
2022/09/07 05:32:54;;;;;;;9.70;7.00;;;;;;;;;;4965599;28;20179;-77
2022/09/07 05:35:59;;;;;;;11.13;6.57;;;;;;;;;;4980891;28;20211;-77
2022/09/07 05:39:04;;;;;;;19.80;7.43;;;;;;;;;;4953400;28;20178;-78
2022/09/07 05:42:08;;;;;;;20.53;8.00;;;;;;;;;;4964968;28;20215;-77
2022/09/07 05:45:13;;;;;;;56.90;9.60;;;;;;;;;;4964431;28;20547;-78
2022/09/07 05:48:17;;;;;;;13.97;7.67;;;;;;;;;;4943206;28;20187;-78
2022/09/07 05:51:21;;;;;;;19.47;6.97;;;;;;;;;;4988903;28;20233;-78
2022/09/07 05:54:25;;;;;;;11.97;6.70;;;;;;;;;;4969846;28;20198;-78
2022/09/07 05:57:29;;;;;;;17.00;7.27;;;;;;;;;;4964665;28;20550;-78
2022/09/07 06:00:33;;;;;;;12.33;6.83;;;;;;;;;;4942947;28;20171;-78
2022/09/07 06:03:39;;;;;;;12.43;6.63;;;;;;;;;;4964338;28;20197;-78
2022/09/07 06:06:43;;;;;;;13.97;6.30;;;;;;;;;;4963242;28;20210;-78
2022/09/07 06:09:48;;;;;;;9.03;5.60;;;;;;;;;;4976479;28;20674;-78
2022/09/07 06:12:52;;;;;;;19.80;6.53;;;;;;;;;;4976378;28;20179;-77
2022/09/07 06:16:04;;;;;;;11.73;5.20;;;;;;;;;;4976365;28;20183;-77
2022/09/07 06:19:08;;;;;;;11.53;4.80;;;;;;;;;;4957820;28;20202;-77
2022/09/07 06:22:13;;;;;;;10.43;6.40;;;;;;;;;;4995197;28;20222;-79
2022/09/07 06:25:17;;;;;;;9.37;5.07;;;;;;;;;;4993814;28;20182;-76
2022/09/07 06:28:30;;;;;;;7.83;5.43;;;;;;;;;;4983273;28;20178;-77
2022/09/07 06:31:34;;;;;;;10.57;5.07;;;;;;;;;;4983775;28;20234;-78
2022/09/07 06:34:38;;;;;;;9.53;5.07;;;;;;;;;;4994408;28;20178;-78
2022/09/07 06:37:43;;;;;;;7.87;4.73;;;;;;;;;;4983417;28;20182;-78
2022/09/07 06:40:47;;;;;;;9.03;4.50;;;;;;;;;;4994828;28;20550;-78
2022/09/07 06:43:52;;;;;;;7.73;5.57;;;;;;;;;;4983813;28;20186;-78
2022/09/07 06:46:57;;;;;;;7.80;4.90;;;;;;;;;;4993365;28;20178;-77
2022/09/07 06:50:01;;;;;;;11.33;4.57;;;;;;;;;;4995130;28;20214;-78
2022/09/07 06:53:06;;;;;;;8.03;4.90;;;;;;;;;;4986176;28;20185;-77
2022/09/07 06:56:12;;;;;;;8.90;3.97;;;;;;;;;;4997650;28;20183;-77
2022/09/07 06:59:16;;;;;;;5.87;4.20;;;;;;;;;;4998585;28;20178;-78
2022/09/07 07:02:21;;;;;;;4.67;3.13;;;;;;;;;;4987505;28;20217;-78
2022/09/07 07:05:25;;;;;;;9.17;4.07;;;;;;;;;;4976209;28;20191;-78
2022/09/07 07:08:30;;;;;;;8.57;3.67;;;;;;;;;;4997552;28;20205;-77
2022/09/07 07:11:36;;;;;;;9.33;3.63;;;;;;;;;;4964712;28;20230;-77
2022/09/07 07:14:39;;;;;;;9.07;3.30;;;;;;;;;;4975182;28;20186;-78
2022/09/07 07:17:43;;;;;;;8.53;3.40;;;;;;;;;;4975688;28;20182;-78
2022/09/07 07:20:48;;;;;;;5.03;3.40;;;;;;;;;;4986570;28;20210;-78
2022/09/07 07:23:52;;;;;;;6.00;2.63;;;;;;;;;;4975734;28;20178;-78
2022/09/07 07:26:57;;;;;;;5.97;3.03;;;;;;;;;;4998220;28;20178;-77
2022/09/07 07:30:01;;;;;;;9.33;3.17;;;;;;;;;;4978286;28;20543;-78
2022/09/07 07:33:06;;;;;;;5.43;2.83;;;;;;;;;;4977792;28;20179;-77
2022/09/07 07:36:12;;;;;;;5.73;2.90;;;;;;;;;;4977861;28;20543;-77
2022/09/07 07:39:16;;;;;;;8.00;2.97;;;;;;;;;;4955670;28;20199;-77
2022/09/07 07:42:20;;;;;;;9.07;2.90;;;;;;;;;;4995215;28;20225;-78
2022/09/07 07:45:24;;;;;;;5.80;2.30;;;;;;;;;;4985277;28;20201;-77
2022/09/07 07:48:30;;;;;;;13.20;2.67;;;;;;;;;;4985215;28;20178;-78
2022/09/07 07:51:34;;;;;;;6.57;2.60;;;;;;;;;;4996303;28;20233;-78
2022/09/07 07:54:38;;;;;;;6.30;2.50;;;;;;;;;;4985330;28;20186;-77
2022/09/07 07:57:42;;;;;;;6.20;2.80;;;;;;;;;;4977735;28;20654;-77
2022/09/07 08:00:47;;;;;;;6.73;2.57;;;;;;;;;;4977427;28;20218;-77
2022/09/07 08:03:51;;;;;;;10.77;2.30;;;;;;;;;;4976491;28;20174;-77
2022/09/07 08:06:56;;;;;;;11.37;3.00;;;;;;;;;;4976399;28;20206;-77
2022/09/07 08:10:00;;;;;;;6.47;2.40;;;;;;;;;;4976928;28;20183;-77
2022/09/07 08:13:04;;;;;;;5.23;2.30;;;;;;;;;;4977210;28;20650;-76
2022/09/07 08:16:09;;;;;;;7.43;2.77;;;;;;;;;;4965029;28;20183;-78
2022/09/07 08:19:13;;;;;;;8.43;2.30;;;;;;;;;;4977248;28;20179;-78
2022/09/07 08:22:17;;;;;;;7.00;2.33;;;;;;;;;;4965418;28;20559;-77
2022/09/07 08:25:21;;;;;;;4.17;2.23;;;;;;;;;;4964450;28;20206;-77
2022/09/07 08:28:27;;;;;;;4.63;2.10;;;;;;;;;;4976512;28;20187;-77
2022/09/07 08:31:31;;;;;;;4.47;1.40;;;;;;;;;;4953084;28;20234;-77
2022/09/07 08:34:37;;;;;;;5.17;1.93;;;;;;;;;;4978272;28;20214;-77
2022/09/07 08:37:41;;;;;;;8.07;1.90;;;;;;;;;;4975475;28;20623;-77
2022/09/07 08:40:45;;;;;;;5.03;1.60;;;;;;;;;;4975324;28;20210;-77
2022/09/07 08:43:58;;;;;;;5.80;1.63;;;;;;;;;;4975940;28;20175;-77
2022/09/07 08:47:29;;;;;;;5.57;1.60;;;;;;;;;;4975709;28;20187;-77
2022/09/07 08:50:51;;;;;;;3.80;1.60;;;;;;;;;;4976004;28;20216;-77
2022/09/07 08:53:55;;;;;;;6.73;1.73;;;;;;;;;;4975595;28;20181;-77
2022/09/07 08:57:01;;;;;;;3.77;1.90;;;;;;;;;;4995288;28;20197;-77
2022/09/07 09:00:11;;;;;;;5.27;1.90;;;;;;;;;;4991689;28;20203;-77
2022/09/07 09:03:26;;;;;;;7.10;1.70;;;;;;;;;;4981711;28;20188;-78
2022/09/07 09:06:46;;;;;;;5.68;1.77;;;;;;;;;;4972571;28;20209;-78
2022/09/07 09:10:15;;;;;;;6.03;1.73;;;;;;;;;;4978033;28;20204;-78
2022/09/07 09:13:24;;;;;;;5.93;1.95;;;;;;;;;;4987896;28;20195;-78
2022/09/07 09:16:32;;;;;;;4.43;2.17;;;;;;;;;;4961840;28;20515;-78
2022/09/07 09:19:54;;;;;;;6.97;2.25;;;;;;;;;;4982155;28;20184;-78
2022/09/07 09:23:11;;;;;;;4.82;2.00;;;;;;;;;;4971499;28;20204;-78
2022/09/07 09:26:29;;;;;;;6.25;1.88;;;;;;;;;;4974356;28;20197;-78
2022/09/07 09:29:34;;;;;;;9.18;2.30;;;;;;;;;;4975755;28;20180;-78
2022/09/07 09:32:41;;;;;;;11.88;2.42;;;;;;;;;;4976169;28;20214;-78
2022/09/07 09:35:51;;;;;;;7.43;2.20;;;;;;;;;;4975056;28;20191;-78
2022/09/07 09:38:55;;;;;;;5.63;1.90;;;;;;;;;;4986071;28;20179;-78
2022/09/07 09:42:23;;;;;;;6.13;2.20;;;;;;;;;;4974813;28;20214;-77
2022/09/07 09:45:50;;;;;;;6.57;1.85;;;;;;;;;;4980918;28;20529;-77
2022/09/07 09:49:13;;;;;;;7.53;2.00;;;;;;;;;;4983086;28;20217;-77
2022/09/07 09:52:19;;;;;;;6.15;1.88;;;;;;;;;;4983414;28;20226;-78
2022/09/07 09:55:33;;;;;;;8.38;2.05;;;;;;;;;;4995579;28;20185;-78
2022/09/07 09:58:39;;;;;;;6.28;1.75;;;;;;;;;;4984178;28;20196;-79
2022/09/07 10:01:45;;;;;;;6.00;2.17;;;;;;;;;;4984799;28;20221;-78
2022/09/07 10:04:49;;;;;;;5.53;1.98;;;;;;;;;;4996563;28;20180;-78
2022/09/07 10:07:54;;;;;;;4.63;2.00;;;;;;;;;;4984030;28;20212;-79
2022/09/07 10:11:03;;;;;;;5.18;1.98;;;;;;;;;;4986982;28;20592;-79
2022/09/07 10:14:16;;;;;;;8.10;1.88;;;;;;;;;;4987039;28;20185;-79
2022/09/07 10:17:29;;;;;;;7.30;2.03;;;;;;;;;;5000473;28;20183;-79
2022/09/07 10:20:37;;;;;;;8.13;1.88;;;;;;;;;;4991647;28;20187;-80
2022/09/07 10:23:42;;;;;;;5.15;1.50;;;;;;;;;;4992101;28;20177;-79
2022/09/07 10:26:47;;;;;;;7.70;2.20;;;;;;;;;;5006898;28;20180;-79
2022/09/07 10:29:53;;;;;;;6.38;2.00;;;;;;;;;;5006060;28;20183;-79
2022/09/07 10:33:05;;;;;;;6.13;1.67;;;;;;;;;;5006818;28;20517;-79
2022/09/07 10:36:42;;;;;;;6.80;2.30;;;;;;;;;;4994868;28;20191;-81
2022/09/07 10:40:09;;;;;;;7.38;2.05;;;;;;;;;;4995032;28;20177;-81
2022/09/07 10:43:37;;;;;;;5.60;2.00;;;;;;;;;;4993660;28;20178;-80
2022/09/07 10:47:00;;;;;;;8.70;2.15;;;;;;;;;;5004564;28;20189;-81
2022/09/07 10:50:14;;;;;;;5.40;1.70;;;;;;;;;;5004681;28;20189;-81
2022/09/07 10:53:32;;;;;;;5.60;2.08;;;;;;;;;;5004430;28;20515;-82
2022/09/07 10:56:57;;;;;;;7.43;1.73;;;;;;;;;;4991857;28;20190;-82
2022/09/07 11:00:12;;;;;;;8.32;2.13;;;;;;;;;;4991090;28;20194;-80
2022/09/07 11:03:31;;;;;;;4.68;1.70;;;;;;;;;;5002618;28;20542;-81
2022/09/07 11:06:42;;;;;;;14.55;2.10;;;;;;;;;;4990372;28;20210;-80
2022/09/07 11:10:01;;;;;;;4.32;1.70;;;;;;;;;;4980137;28;20182;-80
2022/09/07 11:13:10;;;;;;;7.95;1.95;;;;;;;;;;5002323;28;20183;-80
2022/09/07 11:16:20;;;;;;;2.95;1.70;;;;;;;;;;5002051;28;20175;-80
2022/09/07 11:19:30;;;;;;;4.15;1.60;;;;;;;;;;5001753;28;20187;-81
2022/09/07 11:22:46;;;;;;;4.25;1.60;;;;;;;;;;5002603;28;20214;-81
2022/09/07 11:26:03;;;;;;;5.13;1.98;;;;;;;;;;4990540;28;20175;-79
2022/09/07 11:29:24;;;;;;;6.47;1.77;;;;;;;;;;5000866;28;20183;-79
2022/09/07 11:32:34;;;;;;;5.28;1.65;;;;;;;;;;5001501;28;20226;-79
2022/09/07 11:35:46;;;;;;;5.10;1.60;;;;;;;;;;4989052;28;20183;-80
2022/09/07 11:38:59;;;;;;;6.70;2.00;;;;;;;;;;5000462;28;20183;-78
2022/09/07 11:42:17;;;;;;;9.15;1.90;;;;;;;;;;4988530;28;20210;-79
2022/09/07 11:45:32;;;;;;;7.88;1.90;;;;;;;;;;4999418;28;20515;-79
2022/09/07 11:48:54;;;;;;;4.07;1.70;;;;;;;;;;5000197;28;20198;-80
2022/09/07 11:52:01;;;;;;;7.78;2.13;;;;;;;;;;4987797;28;20231;-79
2022/09/07 11:55:12;;;;;;;6.32;1.90;;;;;;;;;;5000237;28;20174;-78
2022/09/07 11:58:25;;;;;;;9.50;2.08;;;;;;;;;;5000801;28;20550;-78
2022/09/07 12:01:29;;;;;;;9.38;1.98;;;;;;;;;;4988266;28;20210;-79
2022/09/07 12:05:04;;;;;;;23.02;2.58;;;;;;;;;;4988620;28;20202;-79
2022/09/07 12:08:14;;;;;;;18.17;2.50;;;;;;;;;;4984156;28;20214;-80
2022/09/07 12:11:37;;;;;;;6.03;1.80;;;;;;;;;;4988891;28;20248;-79
2022/09/07 12:15:01;;;;;;;10.77;2.10;;;;;;;;;;4989443;28;20178;-80
2022/09/07 12:18:34;;;;;;;6.97;1.92;;;;;;;;;;4989455;28;20572;-80
2022/09/07 12:21:49;;;;;;;4.82;1.80;;;;;;;;;;4990117;28;20214;-81
2022/09/07 12:24:53;;;;;;;8.68;1.92;;;;;;;;;;4988860;28;20179;-80
2022/09/07 12:27:58;;;;;;;6.18;1.90;;;;;;;;;;4988880;28;20182;-79
2022/09/07 12:31:05;;;;;;;7.57;2.15;;;;;;;;;;4999839;28;20218;-79
2022/09/07 12:34:31;;;;;;;5.50;1.98;;;;;;;;;;4988125;28;20183;-80
2022/09/07 12:37:38;;;;;;;5.65;1.65;;;;;;;;;;4999028;28;20175;-80
2022/09/07 12:41:03;;;;;;;5.97;1.83;;;;;;;;;;4987649;28;20178;-80
2022/09/07 12:44:16;;;;;;;7.22;1.85;;;;;;;;;;4999152;28;20179;-79
2022/09/07 12:47:29;;;;;;;7.63;2.05;;;;;;;;;;4998628;28;20186;-79
2022/09/07 12:50:39;;;;;;;4.30;1.98;;;;;;;;;;4999285;28;20186;-78
2022/09/07 12:54:09;;;;;;;8.55;1.92;;;;;;;;;;4998575;28;20191;-79
2022/09/07 12:57:13;;;;;;;4.43;2.05;;;;;;;;;;4976655;28;20195;-79
2022/09/07 13:00:24;;;;;;;8.38;2.03;;;;;;;;;;4999101;28;20285;-79
2022/09/07 13:03:49;;;;;;;5.32;1.77;;;;;;;;;;4999042;28;20193;-78
2022/09/07 13:07:16;;;;;;;4.95;1.80;;;;;;;;;;4986734;28;20205;-78
2022/09/07 13:10:30;;;;;;;5.75;1.80;;;;;;;;;;4998770;28;20183;-78
2022/09/07 13:13:34;;;;;;;5.60;1.70;;;;;;;;;;5000503;28;20219;-79
2022/09/07 13:16:41;;;;;;;3.67;1.60;;;;;;;;;;4980839;28;20187;-78
2022/09/07 13:19:45;;;;;;;22.23;2.58;;;;;;;;;;4998314;28;20210;-79
2022/09/07 13:22:49;;;;;;;4.35;2.00;;;;;;;;;;4980151;28;20198;-79
2022/09/07 13:25:55;;;;;;;3.78;1.42;;;;;;;;;;4991527;28;20190;-79
2022/09/07 13:29:10;;;;;;;3.75;1.58;;;;;;;;;;4990548;28;20634;-78
2022/09/07 13:32:31;;;;;;;4.57;1.90;;;;;;;;;;4997182;28;20226;-79
2022/09/07 13:35:36;;;;;;;6.13;2.70;;;;;;;;;;4972579;28;20192;-79
2022/09/07 13:38:41;;;;;;;4.93;1.52;;;;;;;;;;5001696;28;20199;-79
2022/09/07 13:41:57;;;;;;;5.43;1.48;;;;;;;;;;5003818;28;20214;-79
2022/09/07 13:45:05;;;;;;;8.48;1.90;;;;;;;;;;5003056;28;20187;-79
2022/09/07 13:48:31;;;;;;;3.97;1.67;;;;;;;;;;4994457;28;20182;-79
2022/09/07 13:51:48;;;;;;;4.03;1.45;;;;;;;;;;4980624;28;20218;-80
2022/09/07 13:54:59;;;;;;;5.55;1.80;;;;;;;;;;5002385;28;20206;-78
2022/09/07 13:58:32;;;;;;;4.85;1.42;;;;;;;;;;4981680;28;20187;-79
2022/09/07 14:01:43;;;;;;;3.35;1.83;;;;;;;;;;5002712;28;20689;-79
2022/09/07 14:04:50;;;;;;;2.90;1.40;;;;;;;;;;4992371;28;20210;-80
2022/09/07 14:07:54;;;;;;;5.47;1.40;;;;;;;;;;5002649;28;20669;-79
2022/09/07 14:10:59;;;;;;;5.95;1.65;;;;;;;;;;4980142;28;20221;-79
2022/09/07 14:14:12;;;;;;;64.40;4.50;;;;;;;;;;4981896;28;20178;-79
2022/09/07 14:17:18;;;;;;;38.10;4.15;;;;;;;;;;5003361;28;20210;-79
2022/09/07 14:20:23;;;;;;;4.55;1.42;;;;;;;;;;4980289;28;20174;-80
2022/09/07 14:23:33;;;;;;;3.53;1.45;;;;;;;;;;5002438;28;20179;-79
2022/09/07 14:26:45;;;;;;;10.48;1.88;;;;;;;;;;5004192;28;20183;-79
2022/09/07 14:29:50;;;;;;;9.02;1.63;;;;;;;;;;4991116;28;20187;-79
2022/09/07 14:33:04;;;;;;;8.23;1.90;;;;;;;;;;5015135;28;20206;-79
2022/09/07 14:36:09;;;;;;;4.78;1.60;;;;;;;;;;4996085;28;20210;-79
2022/09/07 14:39:16;;;;;;;4.97;1.65;;;;;;;;;;4992660;28;20179;-79
2022/09/07 14:42:23;;;;;;;2.95;1.42;;;;;;;;;;4992128;28;20218;-79
2022/09/07 14:45:27;;;;;;;4.13;1.58;;;;;;;;;;4982413;28;20183;-79
2022/09/07 14:48:32;;;;;;;7.28;2.00;;;;;;;;;;4992159;28;20179;-80
2022/09/07 14:51:43;;;;;;;3.05;1.55;;;;;;;;;;5005752;28;20214;-80
2022/09/07 14:54:51;;;;;;;8.02;1.75;;;;;;;;;;4993564;28;20203;-79
2022/09/07 14:58:09;;;;;;;3.22;1.30;;;;;;;;;;5004853;28;20213;-80
2022/09/07 15:01:13;;;;;;;5.47;1.77;;;;;;;;;;4969059;28;20219;-79
2022/09/07 15:04:18;;;;;;;4.18;1.52;;;;;;;;;;5003644;28;20179;-79
2022/09/07 15:07:49;;;;;;;3.03;1.40;;;;;;;;;;4990924;28;20211;-79
2022/09/07 15:11:02;;;;;;;4.30;1.80;;;;;;;;;;4990053;28;20218;-79
2022/09/07 15:14:07;;;;;;;6.05;1.63;;;;;;;;;;4984458;28;20214;-79
2022/09/07 15:17:24;;;;;;;3.90;1.40;;;;;;;;;;4963146;28;20203;-79
2022/09/07 15:20:41;;;;;;;28.55;2.75;;;;;;;;;;4981689;28;20210;-79
2022/09/07 15:23:50;;;;;;;5.25;1.67;;;;;;;;;;4989497;28;20198;-79
2022/09/07 15:26:54;;;;;;;4.57;1.80;;;;;;;;;;4978478;28;20183;-79
2022/09/07 15:29:59;;;;;;;7.15;1.52;;;;;;;;;;5000184;28;20634;-78
2022/09/07 15:33:03;;;;;;;4.40;1.45;;;;;;;;;;4977464;28;20222;-79
2022/09/07 15:36:15;;;;;;;4.13;1.40;;;;;;;;;;4977768;28;20202;-79
2022/09/07 15:39:26;;;;;;;8.18;1.50;;;;;;;;;;5000061;28;20194;-79
2022/09/07 15:42:31;;;;;;;4.85;1.38;;;;;;;;;;4977353;28;20219;-79
2022/09/07 15:45:35;;;;;;;4.63;1.70;;;;;;;;;;5000652;28;20181;-79
2022/09/07 15:48:49;;;;;;;3.03;1.23;;;;;;;;;;4977645;28;20181;-79
2022/09/07 15:51:54;;;;;;;3.97;1.52;;;;;;;;;;4999561;28;20225;-79
2022/09/07 15:54:59;;;;;;;3.40;1.50;;;;;;;;;;4988559;28;20197;-79
2022/09/07 15:58:03;;;;;;;3.58;1.73;;;;;;;;;;5000865;28;20200;-79
2022/09/07 16:01:08;;;;;;;6.10;1.70;;;;;;;;;;4999822;28;20585;-80
2022/09/07 16:04:13;;;;;;;8.65;1.50;;;;;;;;;;4988564;28;20179;-80
2022/09/07 16:07:17;;;;;;;4.43;1.25;;;;;;;;;;4990157;28;20197;-79
2022/09/07 16:10:23;;;;;;;3.53;1.63;;;;;;;;;;4989228;28;20189;-79
2022/09/07 16:13:27;;;;;;;11.10;1.98;;;;;;;;;;4978267;28;20206;-79
2022/09/07 16:16:31;;;;;;;6.10;1.73;;;;;;;;;;4988985;28;20208;-80
2022/09/07 16:19:35;;;;;;;1.92;1.20;;;;;;;;;;4990543;28;20179;-80
2022/09/07 16:22:40;;;;;;;4.60;1.35;;;;;;;;;;4982835;28;20207;-81
2022/09/07 16:25:56;;;;;;;4.90;1.58;;;;;;;;;;5005832;28;20181;-81
2022/09/07 16:29:00;;;;;;;4.68;1.45;;;;;;;;;;5005874;28;20187;-81
2022/09/07 16:32:04;;;;;;;5.55;1.40;;;;;;;;;;4995073;28;20563;-82
2022/09/07 16:35:09;;;;;;;5.28;1.58;;;;;;;;;;4994194;28;20179;-82
2022/09/07 16:38:13;;;;;;;3.88;1.35;;;;;;;;;;5004599;28;20185;-82
2022/09/07 16:41:23;;;;;;;2.20;1.50;;;;;;;;;;4993776;28;20222;-82
2022/09/07 16:44:27;;;;;;;4.20;1.67;;;;;;;;;;4982730;28;20175;-82
2022/09/07 16:47:32;;;;;;;3.95;1.55;;;;;;;;;;4993447;28;20184;-82
2022/09/07 16:50:36;;;;;;;2.65;1.50;;;;;;;;;;4991471;28;20185;-82
2022/09/07 16:53:40;;;;;;;6.55;1.60;;;;;;;;;;5003698;28;20215;-82
2022/09/07 16:56:44;;;;;;;5.15;1.80;;;;;;;;;;4991061;28;20180;-82
2022/09/07 16:59:48;;;;;;;6.18;2.00;;;;;;;;;;4980096;28;20176;-82
2022/09/07 17:02:53;;;;;;;9.38;1.90;;;;;;;;;;4990878;28;20177;-82
2022/09/07 17:06:01;;;;;;;6.10;2.08;;;;;;;;;;4966918;28;20185;-82
2022/09/07 17:09:06;;;;;;;9.02;2.25;;;;;;;;;;4976932;28;20171;-82
2022/09/07 17:12:11;;;;;;;4.85;2.00;;;;;;;;;;4976966;28;20208;-81
2022/09/07 17:15:15;;;;;;;17.98;2.70;;;;;;;;;;4990588;28;20182;-80
2022/09/07 17:18:19;;;;;;;10.77;2.83;;;;;;;;;;4989340;28;20536;-80
2022/09/07 17:21:23;;;;;;;4.53;2.20;;;;;;;;;;5000593;28;20581;-80
2022/09/07 17:24:29;;;;;;;4.70;2.00;;;;;;;;;;4999793;28;20198;-80
2022/09/07 17:27:33;;;;;;;4.57;2.00;;;;;;;;;;5000326;28;20224;-80
2022/09/07 17:30:38;;;;;;;11.53;2.20;;;;;;;;;;4966828;28;20185;-81
2022/09/07 17:33:42;;;;;;;4.70;2.30;;;;;;;;;;4998174;28;20215;-82
2022/09/07 17:36:47;;;;;;;3.87;2.07;;;;;;;;;;4976927;28;20184;-84
2022/09/07 17:39:52;;;;;;;6.23;2.10;;;;;;;;;;4963869;28;20194;-82
2022/09/07 17:42:56;;;;;;;4.03;2.30;;;;;;;;;;4987127;28;20523;-82
2022/09/07 17:46:06;;;;;;;5.37;2.43;;;;;;;;;;4988154;28;20182;-84
2022/09/07 17:49:15;;;;;;;5.07;2.50;;;;;;;;;;4987469;28;20623;-81
2022/09/07 17:52:19;;;;;;;5.90;2.53;;;;;;;;;;4987122;28;20226;-78
2022/09/07 17:55:23;;;;;;;6.73;2.50;;;;;;;;;;4999925;28;20191;-80
2022/09/07 17:58:27;;;;;;;3.27;2.43;;;;;;;;;;4987282;28;20192;-81
2022/09/07 18:01:31;;;;;;;4.10;2.30;;;;;;;;;;4997942;28;20221;-82
2022/09/07 18:04:36;;;;;;;5.53;2.33;;;;;;;;;;4975597;28;20180;-82
2022/09/07 18:07:40;;;;;;;8.23;2.50;;;;;;;;;;4973309;28;20202;-82
2022/09/07 18:10:44;;;;;;;8.50;2.60;;;;;;;;;;4974276;28;20221;-82
2022/09/07 18:13:54;;;;;;;3.63;2.37;;;;;;;;;;4975417;28;20209;-80
2022/09/07 18:16:59;;;;;;;5.83;2.20;;;;;;;;;;4975181;28;20182;-82
2022/09/07 18:20:03;;;;;;;6.40;2.23;;;;;;;;;;4984134;28;20634;-81
2022/09/07 18:23:08;;;;;;;6.47;2.70;;;;;;;;;;4986474;28;20198;-82
2022/09/07 18:26:12;;;;;;;3.27;1.93;;;;;;;;;;4973816;28;20198;-81
2022/09/07 18:29:22;;;;;;;5.00;2.43;;;;;;;;;;4973827;28;20202;-81
2022/09/07 18:32:26;;;;;;;5.43;2.10;;;;;;;;;;4973633;28;20217;-82
2022/09/07 18:35:30;;;;;;;4.83;2.53;;;;;;;;;;4986168;28;20194;-82
2022/09/07 18:38:34;;;;;;;4.07;2.23;;;;;;;;;;4986803;28;20178;-80
2022/09/07 18:41:39;;;;;;;5.37;2.63;;;;;;;;;;4987144;28;20213;-79
2022/09/07 18:44:44;;;;;;;5.07;2.10;;;;;;;;;;4987413;28;20190;-80